Líbí se Vám tento web? Budeme velmi rádi, pokud přidáte hodnocení +1

Seznam meteostanic a jejich METAR

Vyhledat místa podle abecedy:
A B C D E F G H I J K L M N O P Q R S T U V W X Y Z

Filtrovat:

ID stanice:
a/nebo
Název místa (fulltext):
 
Místo (ID)Naposledy načteno 
Holešov (Holesov) 20.01.2018 03:00 UTC Zobrazit data
Místo: Holešov
Teplota: -1 °C (pocitová: -9.8 °C)
Vítr: 4 m/s z(e) 180°
Počasí: zataženo
Dohlednost: 6 km
Zákl. oblačnosti: 5/8 1800 m;6/8 6000 m
Vlhkost: 100%
Hamburg (EDDH) 20.01.2018 02:50 UTC Zobrazit METAR
EDDH 200250Z 22009KT 9999 BKN008 BKN043 01/M00 Q1005 R88/610195 NOSIG
Hannover (EDDV) 20.01.2018 02:50 UTC Zobrazit METAR
EDDV 200250Z 22006KT 9999 FEW014 BKN060 01/M00 Q1007
Hanoi (VVNB) 20.01.2018 03:00 UTC Zobrazit METAR
VVNB 200300Z 00000KT 3100 BR BKN017 20/18 Q1017 NOSIG
Harare (FVHA) 23.12.2017 07:00 UTC Zobrazit METAR
FVHA 230700Z 01004KT 310V080 9999 FEW010 BKN080 BKN300 24/22 Q1019 NOSIG
Havana (MUHA) 20.01.2018 02:55 UTC Zobrazit METAR
MUHA 200255Z 00000KT 9000 FEW035 16/14 Q1022
Helsinki (EFHK) 20.01.2018 02:50 UTC Zobrazit METAR
EFHK 200250Z 32005KT 1500 BR BKN002 M03/M03 Q1008 TEMPO 1000 BR BKN001
Hong Kong (VHHH) 20.01.2018 03:00 UTC Zobrazit METAR
VHHH 200300Z 10015KT 9999 FEW028 SCT040 21/14 Q1018 NOSIG
Honiara (AGGH) 20.01.2018 03:00 UTC Zobrazit METAR
AGGH 200300Z 07008KT 9999 HZ SCT020 BKN300 32/25 Q1005
Horta (LPHR) 19.01.2018 21:00 UTC Zobrazit METAR
LPHR 192100Z 20012KT 9999 FEW014 BKN030 17/13 Q1031
Reklama

Počasí na Váš email

Emaily jsou bez reklamy a bez spamu



Odhlásit newsletter

Reklama


Lunární kalendář

  • 24.01.
  • 31.01.
  • 07.02.
  • 15.02.



Jsme na Google Plus

Reklama
Povinné ručení



Může Vás také zajímat:


Reklama